YGQ weather

Geraldton Greenstone Regional Airport
Geraldton, Ontario, Canada

Public forecast

Using degrees Celsius for public forecast. Weather courtesy of forecast.io.

METAR (pilot weather report)

Retrieved 2019/05/20 01:00 UTC (1 hour ago):

CYGQ 200100Z 05008G15KT 15SM SCT057 BKN210 09/M01 A2994 RMK SC3CS2 SLP152

TAF (pilot weather forecast)

Retrieved 2019/05/19 20:42 UTC (5 hours ago):

TAF CYGQ 191938Z 1920/2008 04015G25KT P6SM BKN025 OVC180 TEMPO 1920/1924 BKN020 FM200000 05010KT P6SM FEW040 OVC160 FM200600 02007KT P6SM SCT040 RMK NXT FCST BY 200200Z